sensor_id;sensor_type;location;lat;lon;timestamp;P1;durP1;ratioP1;P2;durP2;ratioP2
10150;SDS011;5116;52.318;4.644;2023-04-24T00:00:17;1.20;;;1.10;;
10150;SDS011;5116;52.318;4.644;2023-04-24T00:02:45;3.77;;;1.20;;
10150;SDS011;5116;52.318;4.644;2023-04-24T00:05:14;2.30;;;1.20;;
10150;SDS011;5116;52.318;4.644;2023-04-24T00:07:42;0.90;;;0.90;;
10150;SDS011;5116;52.318;4.644;2023-04-24T00:10:09;0.90;;;0.90;;
10150;SDS011;5116;52.318;4.644;2023-04-24T00:12:37;0.97;;;0.97;;
10150;SDS011;5116;52.318;4.644;2023-04-24T00:15:05;1.00;;;1.00;;
10150;SDS011;5116;52.318;4.644;2023-04-24T00:17:33;1.10;;;1.00;;
10150;SDS011;5116;52.318;4.644;2023-04-24T00:20:00;1.30;;;1.00;;
10150;SDS011;5116;52.318;4.644;2023-04-24T00:22:31;0.90;;;0.90;;
10150;SDS011;5116;52.318;4.644;2023-04-24T00:24:58;1.20;;;1.10;;
10150;SDS011;5116;52.318;4.644;2023-04-24T00:27:26;1.13;;;0.90;;
10150;SDS011;5116;52.318;4.644;2023-04-24T00:29:53;0.90;;;0.90;;
10150;SDS011;5116;52.318;4.644;2023-04-24T00:32:21;2.20;;;1.20;;
10150;SDS011;5116;52.318;4.644;2023-04-24T00:34:48;1.70;;;1.10;;
10150;SDS011;5116;52.318;4.644;2023-04-24T00:37:16;1.00;;;1.00;;
10150;SDS011;5116;52.318;4.644;2023-04-24T00:39:43;1.13;;;1.03;;
10150;SDS011;5116;52.318;4.644;2023-04-24T00:42:11;1.13;;;1.10;;
10150;SDS011;5116;52.318;4.644;2023-04-24T00:44:39;0.90;;;0.90;;
10150;SDS011;5116;52.318;4.644;2023-04-24T00:47:06;1.10;;;1.10;;
10150;SDS011;5116;52.318;4.644;2023-04-24T00:49:34;1.13;;;1.03;;
10150;SDS011;5116;52.318;4.644;2023-04-24T00:52:02;0.90;;;0.90;;
10150;SDS011;5116;52.318;4.644;2023-04-24T00:54:34;1.10;;;1.00;;
10150;SDS011;5116;52.318;4.644;2023-04-24T00:57:05;1.00;;;0.90;;
10150;SDS011;5116;52.318;4.644;2023-04-24T00:59:33;0.90;;;0.90;;
10150;SDS011;5116;52.318;4.644;2023-04-24T01:02:01;1.37;;;1.07;;
10150;SDS011;5116;52.318;4.644;2023-04-24T01:04:28;1.00;;;1.00;;
10150;SDS011;5116;52.318;4.644;2023-04-24T01:06:56;1.20;;;1.10;;
10150;SDS011;5116;52.318;4.644;2023-04-24T01:09:23;1.03;;;1.00;;
10150;SDS011;5116;52.318;4.644;2023-04-24T01:11:51;1.00;;;1.00;;
10150;SDS011;5116;52.318;4.644;2023-04-24T01:14:19;1.10;;;1.10;;
10150;SDS011;5116;52.318;4.644;2023-04-24T01:16:48;1.00;;;1.00;;
10150;SDS011;5116;52.318;4.644;2023-04-24T01:19:16;1.10;;;1.00;;
10150;SDS011;5116;52.318;4.644;2023-04-24T01:21:43;1.90;;;0.90;;
10150;SDS011;5116;52.318;4.644;2023-04-24T01:24:12;1.00;;;1.00;;
10150;SDS011;5116;52.318;4.644;2023-04-24T01:26:39;2.13;;;1.00;;
10150;SDS011;5116;52.318;4.644;2023-04-24T01:29:07;1.07;;;1.07;;
10150;SDS011;5116;52.318;4.644;2023-04-24T01:31:36;1.37;;;1.10;;
10150;SDS011;5116;52.318;4.644;2023-04-24T01:34:05;0.90;;;0.90;;
10150;SDS011;5116;52.318;4.644;2023-04-24T01:36:32;1.00;;;1.00;;
10150;SDS011;5116;52.318;4.644;2023-04-24T01:39:01;1.10;;;0.93;;
10150;SDS011;5116;52.318;4.644;2023-04-24T01:41:30;0.90;;;0.90;;
10150;SDS011;5116;52.318;4.644;2023-04-24T01:43:57;0.80;;;0.80;;
10150;SDS011;5116;52.318;4.644;2023-04-24T01:46:24;0.90;;;0.90;;
10150;SDS011;5116;52.318;4.644;2023-04-24T01:48:52;0.90;;;0.90;;
10150;SDS011;5116;52.318;4.644;2023-04-24T01:51:21;0.90;;;0.90;;
10150;SDS011;5116;52.318;4.644;2023-04-24T01:53:48;0.90;;;0.90;;
10150;SDS011;5116;52.318;4.644;2023-04-24T01:56:16;0.90;;;0.90;;
10150;SDS011;5116;52.318;4.644;2023-04-24T01:58:44;1.00;;;0.90;;
10150;SDS011;5116;52.318;4.644;2023-04-24T02:01:15;1.00;;;1.00;;
10150;SDS011;5116;52.318;4.644;2023-04-24T02:03:46;0.90;;;0.90;;
10150;SDS011;5116;52.318;4.644;2023-04-24T02:06:14;0.80;;;0.80;;
10150;SDS011;5116;52.318;4.644;2023-04-24T02:08:41;0.97;;;0.97;;
10150;SDS011;5116;52.318;4.644;2023-04-24T02:11:09;0.80;;;0.80;;
10150;SDS011;5116;52.318;4.644;2023-04-24T02:13:36;0.90;;;0.90;;
10150;SDS011;5116;52.318;4.644;2023-04-24T02:16:04;0.80;;;0.80;;
10150;SDS011;5116;52.318;4.644;2023-04-24T02:18:31;0.90;;;0.90;;
10150;SDS011;5116;52.318;4.644;2023-04-24T02:20:59;0.70;;;0.70;;
10150;SDS011;5116;52.318;4.644;2023-04-24T02:23:26;0.90;;;0.90;;
10150;SDS011;5116;52.318;4.644;2023-04-24T02:25:54;0.90;;;0.90;;
10150;SDS011;5116;52.318;4.644;2023-04-24T02:28:23;0.90;;;0.90;;
10150;SDS011;5116;52.318;4.644;2023-04-24T02:30:54;1.53;;;1.00;;
10150;SDS011;5116;52.318;4.644;2023-04-24T02:33:21;0.80;;;0.80;;
10150;SDS011;5116;52.318;4.644;2023-04-24T02:35:48;0.80;;;0.80;;
10150;SDS011;5116;52.318;4.644;2023-04-24T02:38:16;0.80;;;0.80;;
10150;SDS011;5116;52.318;4.644;2023-04-24T02:40:43;1.60;;;1.10;;
10150;SDS011;5116;52.318;4.644;2023-04-24T02:43:10;1.13;;;0.90;;
10150;SDS011;5116;52.318;4.644;2023-04-24T02:45:38;0.80;;;0.80;;
10150;SDS011;5116;52.318;4.644;2023-04-24T02:48:05;0.80;;;0.80;;
10150;SDS011;5116;52.318;4.644;2023-04-24T02:50:33;0.80;;;0.80;;
10150;SDS011;5116;52.318;4.644;2023-04-24T02:53:01;0.80;;;0.80;;
10150;SDS011;5116;52.318;4.644;2023-04-24T02:55:28;0.90;;;0.90;;
10150;SDS011;5116;52.318;4.644;2023-04-24T02:57:56;1.37;;;1.27;;
10150;SDS011;5116;52.318;4.644;2023-04-24T03:00:25;0.80;;;0.80;;
10150;SDS011;5116;52.318;4.644;2023-04-24T03:02:52;0.87;;;0.87;;
10150;SDS011;5116;52.318;4.644;2023-04-24T03:05:20;1.47;;;1.00;;
10150;SDS011;5116;52.318;4.644;2023-04-24T03:07:47;0.80;;;0.80;;
10150;SDS011;5116;52.318;4.644;2023-04-24T03:10:15;0.83;;;0.83;;
10150;SDS011;5116;52.318;4.644;2023-04-24T03:12:42;0.80;;;0.80;;
10150;SDS011;5116;52.318;4.644;2023-04-24T03:15:09;0.80;;;0.80;;
10150;SDS011;5116;52.318;4.644;2023-04-24T03:17:37;0.80;;;0.80;;
10150;SDS011;5116;52.318;4.644;2023-04-24T03:20:05;0.80;;;0.80;;
10150;SDS011;5116;52.318;4.644;2023-04-24T03:22:33;0.90;;;0.90;;
10150;SDS011;5116;52.318;4.644;2023-04-24T03:25:05;0.93;;;0.90;;
10150;SDS011;5116;52.318;4.644;2023-04-24T03:27:32;0.90;;;0.90;;
10150;SDS011;5116;52.318;4.644;2023-04-24T03:30:04;0.80;;;0.80;;
10150;SDS011;5116;52.318;4.644;2023-04-24T03:32:43;0.90;;;0.90;;
10150;SDS011;5116;52.318;4.644;2023-04-24T03:35:13;0.90;;;0.90;;
10150;SDS011;5116;52.318;4.644;2023-04-24T03:37:41;0.80;;;0.80;;
10150;SDS011;5116;52.318;4.644;2023-04-24T03:40:34;0.93;;;0.93;;
10150;SDS011;5116;52.318;4.644;2023-04-24T03:43:06;1.00;;;1.00;;
10150;SDS011;5116;52.318;4.644;2023-04-24T03:45:34;1.10;;;1.00;;
10150;SDS011;5116;52.318;4.644;2023-04-24T03:48:01;1.00;;;1.00;;
10150;SDS011;5116;52.318;4.644;2023-04-24T03:50:29;0.90;;;0.90;;
10150;SDS011;5116;52.318;4.644;2023-04-24T03:52:57;1.07;;;1.07;;
10150;SDS011;5116;52.318;4.644;2023-04-24T03:55:34;1.10;;;1.00;;
10150;SDS011;5116;52.318;4.644;2023-04-24T03:58:02;0.90;;;0.90;;
10150;SDS011;5116;52.318;4.644;2023-04-24T04:00:30;0.90;;;0.90;;
10150;SDS011;5116;52.318;4.644;2023-04-24T04:03:18;1.60;;;1.20;;
10150;SDS011;5116;52.318;4.644;2023-04-24T04:05:46;1.00;;;0.97;;
10150;SDS011;5116;52.318;4.644;2023-04-24T04:08:13;1.00;;;1.00;;
10150;SDS011;5116;52.318;4.644;2023-04-24T04:10:41;0.80;;;0.80;;
10150;SDS011;5116;52.318;4.644;2023-04-24T04:13:08;0.80;;;0.80;;
10150;SDS011;5116;52.318;4.644;2023-04-24T04:15:36;1.00;;;1.00;;
10150;SDS011;5116;52.318;4.644;2023-04-24T04:18:04;2.70;;;0.90;;
10150;SDS011;5116;52.318;4.644;2023-04-24T04:20:32;0.90;;;0.90;;
10150;SDS011;5116;52.318;4.644;2023-04-24T04:22:59;0.80;;;0.80;;
10150;SDS011;5116;52.318;4.644;2023-04-24T04:25:39;0.90;;;0.90;;
10150;SDS011;5116;52.318;4.644;2023-04-24T04:28:07;0.70;;;0.70;;
10150;SDS011;5116;52.318;4.644;2023-04-24T04:30:34;0.90;;;0.90;;
10150;SDS011;5116;52.318;4.644;2023-04-24T04:33:04;3.20;;;0.93;;
10150;SDS011;5116;52.318;4.644;2023-04-24T04:35:33;0.80;;;0.80;;
10150;SDS011;5116;52.318;4.644;2023-04-24T04:38:01;0.90;;;0.90;;
10150;SDS011;5116;52.318;4.644;2023-04-24T04:40:43;0.97;;;0.90;;
10150;SDS011;5116;52.318;4.644;2023-04-24T04:43:11;1.20;;;1.20;;
10150;SDS011;5116;52.318;4.644;2023-04-24T04:45:47;0.80;;;0.80;;
10150;SDS011;5116;52.318;4.644;2023-04-24T04:48:24;0.90;;;0.90;;
10150;SDS011;5116;52.318;4.644;2023-04-24T04:50:51;0.90;;;0.90;;
10150;SDS011;5116;52.318;4.644;2023-04-24T04:53:20;0.80;;;0.80;;
10150;SDS011;5116;52.318;4.644;2023-04-24T04:55:48;0.97;;;0.97;;
10150;SDS011;5116;52.318;4.644;2023-04-24T04:58:18;0.90;;;0.90;;
10150;SDS011;5116;52.318;4.644;2023-04-24T05:00:49;1.80;;;1.70;;
10150;SDS011;5116;52.318;4.644;2023-04-24T05:03:25;1.83;;;1.30;;
10150;SDS011;5116;52.318;4.644;2023-04-24T05:06:03;1.57;;;1.30;;
10150;SDS011;5116;52.318;4.644;2023-04-24T05:08:34;1.80;;;1.70;;
10150;SDS011;5116;52.318;4.644;2023-04-24T05:11:03;3.23;;;1.60;;
10150;SDS011;5116;52.318;4.644;2023-04-24T05:13:31;1.80;;;1.70;;
10150;SDS011;5116;52.318;4.644;2023-04-24T05:16:17;2.03;;;1.77;;
10150;SDS011;5116;52.318;4.644;2023-04-24T05:18:45;2.00;;;1.37;;
10150;SDS011;5116;52.318;4.644;2023-04-24T05:21:16;1.70;;;1.47;;
10150;SDS011;5116;52.318;4.644;2023-04-24T05:23:47;2.90;;;2.27;;
10150;SDS011;5116;52.318;4.644;2023-04-24T05:26:21;2.87;;;2.67;;
10150;SDS011;5116;52.318;4.644;2023-04-24T05:28:49;3.27;;;2.73;;
10150;SDS011;5116;52.318;4.644;2023-04-24T05:31:19;4.70;;;3.83;;
10150;SDS011;5116;52.318;4.644;2023-04-24T05:33:48;1.67;;;1.57;;
10150;SDS011;5116;52.318;4.644;2023-04-24T05:36:16;2.60;;;2.07;;
10150;SDS011;5116;52.318;4.644;2023-04-24T05:38:43;4.67;;;2.27;;
10150;SDS011;5116;52.318;4.644;2023-04-24T05:41:13;2.87;;;2.57;;
10150;SDS011;5116;52.318;4.644;2023-04-24T05:43:41;4.03;;;3.03;;
10150;SDS011;5116;52.318;4.644;2023-04-24T05:46:11;5.83;;;3.20;;
10150;SDS011;5116;52.318;4.644;2023-04-24T05:48:39;3.67;;;2.50;;
10150;SDS011;5116;52.318;4.644;2023-04-24T05:51:06;3.20;;;2.90;;
10150;SDS011;5116;52.318;4.644;2023-04-24T05:53:34;3.10;;;2.70;;
10150;SDS011;5116;52.318;4.644;2023-04-24T05:56:02;3.93;;;2.77;;
10150;SDS011;5116;52.318;4.644;2023-04-24T05:58:30;4.53;;;2.90;;
10150;SDS011;5116;52.318;4.644;2023-04-24T06:00:58;3.33;;;3.00;;
10150;SDS011;5116;52.318;4.644;2023-04-24T06:03:28;3.20;;;2.90;;
10150;SDS011;5116;52.318;4.644;2023-04-24T06:05:56;3.00;;;2.73;;
10150;SDS011;5116;52.318;4.644;2023-04-24T06:08:24;3.07;;;2.57;;
10150;SDS011;5116;52.318;4.644;2023-04-24T06:10:54;4.60;;;2.70;;
10150;SDS011;5116;52.318;4.644;2023-04-24T06:13:22;6.27;;;2.83;;
10150;SDS011;5116;52.318;4.644;2023-04-24T06:16:12;2.93;;;2.20;;
10150;SDS011;5116;52.318;4.644;2023-04-24T06:18:46;2.77;;;2.30;;
10150;SDS011;5116;52.318;4.644;2023-04-24T06:21:17;2.90;;;2.67;;
10150;SDS011;5116;52.318;4.644;2023-04-24T06:23:44;2.70;;;2.50;;
10150;SDS011;5116;52.318;4.644;2023-04-24T06:26:14;4.00;;;2.90;;
10150;SDS011;5116;52.318;4.644;2023-04-24T06:28:41;2.30;;;2.13;;
10150;SDS011;5116;52.318;4.644;2023-04-24T06:31:08;2.67;;;2.47;;
10150;SDS011;5116;52.318;4.644;2023-04-24T06:33:36;6.27;;;2.87;;
10150;SDS011;5116;52.318;4.644;2023-04-24T06:36:03;5.20;;;2.10;;
10150;SDS011;5116;52.318;4.644;2023-04-24T06:38:31;3.10;;;2.40;;
10150;SDS011;5116;52.318;4.644;2023-04-24T06:40:59;2.60;;;2.40;;
10150;SDS011;5116;52.318;4.644;2023-04-24T06:43:26;2.63;;;2.23;;
10150;SDS011;5116;52.318;4.644;2023-04-24T06:45:53;4.87;;;2.30;;
10150;SDS011;5116;52.318;4.644;2023-04-24T06:48:21;2.13;;;1.93;;
10150;SDS011;5116;52.318;4.644;2023-04-24T06:50:49;2.53;;;2.07;;
10150;SDS011;5116;52.318;4.644;2023-04-24T06:53:16;3.27;;;2.07;;
10150;SDS011;5116;52.318;4.644;2023-04-24T06:55:44;2.57;;;2.10;;
10150;SDS011;5116;52.318;4.644;2023-04-24T06:58:12;2.97;;;2.70;;
10150;SDS011;5116;52.318;4.644;2023-04-24T07:00:40;3.83;;;2.23;;
10150;SDS011;5116;52.318;4.644;2023-04-24T07:03:08;3.13;;;2.10;;
10150;SDS011;5116;52.318;4.644;2023-04-24T07:05:36;3.67;;;1.90;;
10150;SDS011;5116;52.318;4.644;2023-04-24T07:08:04;3.80;;;2.07;;
10150;SDS011;5116;52.318;4.644;2023-04-24T07:10:33;2.40;;;1.90;;
10150;SDS011;5116;52.318;4.644;2023-04-24T07:13:01;2.07;;;1.83;;
10150;SDS011;5116;52.318;4.644;2023-04-24T07:15:29;2.30;;;1.90;;
10150;SDS011;5116;52.318;4.644;2023-04-24T07:17:57;2.90;;;2.07;;
10150;SDS011;5116;52.318;4.644;2023-04-24T07:20:24;2.00;;;1.60;;
10150;SDS011;5116;52.318;4.644;2023-04-24T07:22:52;3.77;;;2.10;;
10150;SDS011;5116;52.318;4.644;2023-04-24T07:25:20;4.00;;;2.40;;
10150;SDS011;5116;52.318;4.644;2023-04-24T07:27:48;5.43;;;1.80;;
10150;SDS011;5116;52.318;4.644;2023-04-24T07:30:15;5.67;;;2.00;;
10150;SDS011;5116;52.318;4.644;2023-04-24T07:32:43;2.23;;;1.87;;
10150;SDS011;5116;52.318;4.644;2023-04-24T07:35:10;5.73;;;1.77;;
10150;SDS011;5116;52.318;4.644;2023-04-24T07:37:38;2.43;;;1.50;;
10150;SDS011;5116;52.318;4.644;2023-04-24T07:40:05;2.20;;;1.67;;
10150;SDS011;5116;52.318;4.644;2023-04-24T07:42:34;2.33;;;1.50;;
10150;SDS011;5116;52.318;4.644;2023-04-24T07:45:03;2.10;;;1.43;;
10150;SDS011;5116;52.318;4.644;2023-04-24T07:47:31;4.80;;;1.80;;
10150;SDS011;5116;52.318;4.644;2023-04-24T07:49:59;1.43;;;1.30;;
10150;SDS011;5116;52.318;4.644;2023-04-24T07:52:28;1.53;;;1.40;;
10150;SDS011;5116;52.318;4.644;2023-04-24T07:54:55;1.93;;;1.50;;
10150;SDS011;5116;52.318;4.644;2023-04-24T07:57:25;2.67;;;1.40;;
10150;SDS011;5116;52.318;4.644;2023-04-24T07:59:52;1.73;;;1.60;;
10150;SDS011;5116;52.318;4.644;2023-04-24T08:02:19;1.57;;;1.47;;
10150;SDS011;5116;52.318;4.644;2023-04-24T08:04:52;3.17;;;1.30;;
10150;SDS011;5116;52.318;4.644;2023-04-24T08:07:21;2.77;;;1.43;;
10150;SDS011;5116;52.318;4.644;2023-04-24T08:09:48;2.70;;;1.93;;
10150;SDS011;5116;52.318;4.644;2023-04-24T08:12:16;1.90;;;1.80;;
10150;SDS011;5116;52.318;4.644;2023-04-24T08:14:43;1.73;;;1.60;;
10150;SDS011;5116;52.318;4.644;2023-04-24T08:17:11;2.13;;;1.60;;
10150;SDS011;5116;52.318;4.644;2023-04-24T08:19:39;3.07;;;1.50;;
10150;SDS011;5116;52.318;4.644;2023-04-24T08:22:10;1.50;;;1.40;;
10150;SDS011;5116;52.318;4.644;2023-04-24T08:24:38;1.50;;;1.40;;
10150;SDS011;5116;52.318;4.644;2023-04-24T08:27:05;2.13;;;1.50;;
10150;SDS011;5116;52.318;4.644;2023-04-24T08:29:32;2.23;;;1.73;;
10150;SDS011;5116;52.318;4.644;2023-04-24T08:32:00;2.63;;;1.57;;
10150;SDS011;5116;52.318;4.644;2023-04-24T08:34:28;1.60;;;1.50;;
10150;SDS011;5116;52.318;4.644;2023-04-24T08:36:55;1.77;;;1.60;;
10150;SDS011;5116;52.318;4.644;2023-04-24T08:39:22;1.67;;;1.57;;
10150;SDS011;5116;52.318;4.644;2023-04-24T08:41:50;2.40;;;1.20;;
10150;SDS011;5116;52.318;4.644;2023-04-24T08:44:17;2.40;;;1.20;;
10150;SDS011;5116;52.318;4.644;2023-04-24T08:46:47;1.50;;;1.40;;
10150;SDS011;5116;52.318;4.644;2023-04-24T08:49:15;2.37;;;1.43;;
10150;SDS011;5116;52.318;4.644;2023-04-24T08:51:43;2.03;;;1.50;;
10150;SDS011;5116;52.318;4.644;2023-04-24T08:54:14;1.80;;;1.47;;
10150;SDS011;5116;52.318;4.644;2023-04-24T08:56:43;2.73;;;1.90;;
10150;SDS011;5116;52.318;4.644;2023-04-24T08:59:11;1.40;;;1.30;;
10150;SDS011;5116;52.318;4.644;2023-04-24T09:01:39;1.43;;;1.33;;
10150;SDS011;5116;52.318;4.644;2023-04-24T09:04:08;3.90;;;1.50;;
10150;SDS011;5116;52.318;4.644;2023-04-24T09:06:43;2.37;;;1.60;;
10150;SDS011;5116;52.318;4.644;2023-04-24T09:09:11;1.17;;;1.10;;
10150;SDS011;5116;52.318;4.644;2023-04-24T09:11:38;1.30;;;1.20;;
10150;SDS011;5116;52.318;4.644;2023-04-24T09:14:05;4.83;;;1.30;;
10150;SDS011;5116;52.318;4.644;2023-04-24T09:16:33;1.10;;;1.10;;
10150;SDS011;5116;52.318;4.644;2023-04-24T09:19:02;1.20;;;1.10;;
10150;SDS011;5116;52.318;4.644;2023-04-24T09:21:33;1.33;;;1.23;;
10150;SDS011;5116;52.318;4.644;2023-04-24T09:24:01;1.27;;;1.27;;
10150;SDS011;5116;52.318;4.644;2023-04-24T09:26:30;1.20;;;1.10;;
10150;SDS011;5116;52.318;4.644;2023-04-24T09:28:58;1.30;;;1.23;;
10150;SDS011;5116;52.318;4.644;2023-04-24T09:31:28;1.30;;;1.20;;
10150;SDS011;5116;52.318;4.644;2023-04-24T09:34:02;1.83;;;1.30;;
10150;SDS011;5116;52.318;4.644;2023-04-24T09:36:34;1.20;;;1.20;;
10150;SDS011;5116;52.318;4.644;2023-04-24T09:39:04;1.40;;;1.30;;
10150;SDS011;5116;52.318;4.644;2023-04-24T09:41:32;1.07;;;1.00;;
10150;SDS011;5116;52.318;4.644;2023-04-24T09:44:18;1.43;;;1.10;;
10150;SDS011;5116;52.318;4.644;2023-04-24T09:46:53;1.10;;;1.10;;
10150;SDS011;5116;52.318;4.644;2023-04-24T09:49:24;1.13;;;1.10;;
10150;SDS011;5116;52.318;4.644;2023-04-24T09:51:52;1.23;;;1.10;;
10150;SDS011;5116;52.318;4.644;2023-04-24T09:54:20;1.07;;;1.03;;
10150;SDS011;5116;52.318;4.644;2023-04-24T09:56:49;4.30;;;1.27;;
10150;SDS011;5116;52.318;4.644;2023-04-24T09:59:17;1.97;;;1.10;;
10150;SDS011;5116;52.318;4.644;2023-04-24T10:01:45;1.03;;;1.00;;
10150;SDS011;5116;52.318;4.644;2023-04-24T10:04:19;1.20;;;1.10;;
10150;SDS011;5116;52.318;4.644;2023-04-24T10:06:47;1.20;;;1.10;;
10150;SDS011;5116;52.318;4.644;2023-04-24T10:09:16;1.00;;;1.00;;
10150;SDS011;5116;52.318;4.644;2023-04-24T10:11:47;1.00;;;1.00;;
10150;SDS011;5116;52.318;4.644;2023-04-24T10:14:16;1.10;;;1.00;;
10150;SDS011;5116;52.318;4.644;2023-04-24T10:16:44;1.53;;;1.00;;
10150;SDS011;5116;52.318;4.644;2023-04-24T10:19:15;1.00;;;1.00;;
10150;SDS011;5116;52.318;4.644;2023-04-24T10:21:46;0.90;;;0.90;;
10150;SDS011;5116;52.318;4.644;2023-04-24T10:24:18;1.43;;;1.27;;
10150;SDS011;5116;52.318;4.644;2023-04-24T10:26:48;1.47;;;1.00;;
10150;SDS011;5116;52.318;4.644;2023-04-24T10:29:19;1.10;;;1.00;;
10150;SDS011;5116;52.318;4.644;2023-04-24T10:31:47;1.00;;;1.00;;
10150;SDS011;5116;52.318;4.644;2023-04-24T10:34:16;1.00;;;1.00;;
10150;SDS011;5116;52.318;4.644;2023-04-24T10:36:46;1.83;;;0.97;;
10150;SDS011;5116;52.318;4.644;2023-04-24T10:39:15;1.00;;;1.00;;
10150;SDS011;5116;52.318;4.644;2023-04-24T10:41:43;1.57;;;1.10;;
10150;SDS011;5116;52.318;4.644;2023-04-24T10:44:13;0.90;;;0.90;;
10150;SDS011;5116;52.318;4.644;2023-04-24T10:46:45;1.07;;;1.03;;
10150;SDS011;5116;52.318;4.644;2023-04-24T10:49:14;0.90;;;0.90;;
10150;SDS011;5116;52.318;4.644;2023-04-24T10:51:48;2.03;;;1.07;;
10150;SDS011;5116;52.318;4.644;2023-04-24T10:54:22;1.00;;;1.00;;
10150;SDS011;5116;52.318;4.644;2023-04-24T10:56:51;1.00;;;1.00;;
10150;SDS011;5116;52.318;4.644;2023-04-24T10:59:25;1.03;;;0.93;;
10150;SDS011;5116;52.318;4.644;2023-04-24T11:01:53;1.27;;;1.00;;
10150;SDS011;5116;52.318;4.644;2023-04-24T11:04:28;1.90;;;1.80;;
10150;SDS011;5116;52.318;4.644;2023-04-24T11:06:57;2.10;;;1.47;;
10150;SDS011;5116;52.318;4.644;2023-04-24T11:09:28;1.97;;;1.20;;
10150;SDS011;5116;52.318;4.644;2023-04-24T11:12:04;1.23;;;1.13;;
10150;SDS011;5116;52.318;4.644;2023-04-24T11:14:59;1.10;;;1.00;;
10150;SDS011;5116;52.318;4.644;2023-04-24T11:17:33;3.60;;;1.60;;
10150;SDS011;5116;52.318;4.644;2023-04-24T11:20:07;1.13;;;1.10;;
10150;SDS011;5116;52.318;4.644;2023-04-24T11:22:53;1.73;;;1.63;;
10150;SDS011;5116;52.318;4.644;2023-04-24T11:25:22;1.27;;;1.20;;
10150;SDS011;5116;52.318;4.644;2023-04-24T11:27:49;1.30;;;1.20;;
10150;SDS011;5116;52.318;4.644;2023-04-24T11:30:17;2.70;;;1.63;;
10150;SDS011;5116;52.318;4.644;2023-04-24T11:32:50;1.67;;;1.43;;
10150;SDS011;5116;52.318;4.644;2023-04-24T11:35:18;1.07;;;1.07;;
10150;SDS011;5116;52.318;4.644;2023-04-24T11:37:48;1.50;;;1.40;;
10150;SDS011;5116;52.318;4.644;2023-04-24T11:40:19;1.97;;;1.87;;
10150;SDS011;5116;52.318;4.644;2023-04-24T11:42:49;2.10;;;1.60;;
10150;SDS011;5116;52.318;4.644;2023-04-24T11:45:18;1.17;;;1.00;;
10150;SDS011;5116;52.318;4.644;2023-04-24T11:47:45;1.70;;;1.33;;
10150;SDS011;5116;52.318;4.644;2023-04-24T11:50:14;1.27;;;1.20;;
10150;SDS011;5116;52.318;4.644;2023-04-24T11:52:43;2.07;;;1.10;;
10150;SDS011;5116;52.318;4.644;2023-04-24T11:57:48;2.47;;;1.80;;
10150;SDS011;5116;52.318;4.644;2023-04-24T12:00:16;1.77;;;1.37;;
10150;SDS011;5116;52.318;4.644;2023-04-24T12:02:45;3.77;;;1.67;;
10150;SDS011;5116;52.318;4.644;2023-04-24T12:05:23;2.93;;;1.60;;
10150;SDS011;5116;52.318;4.644;2023-04-24T12:07:53;1.40;;;1.30;;
10150;SDS011;5116;52.318;4.644;2023-04-24T12:10:21;6.37;;;1.53;;
10150;SDS011;5116;52.318;4.644;2023-04-24T12:12:49;2.93;;;1.50;;
10150;SDS011;5116;52.318;4.644;2023-04-24T12:15:18;3.13;;;1.63;;
10150;SDS011;5116;52.318;4.644;2023-04-24T12:17:45;2.43;;;1.57;;
10150;SDS011;5116;52.318;4.644;2023-04-24T12:20:13;3.20;;;1.93;;
10150;SDS011;5116;52.318;4.644;2023-04-24T12:25:12;1.63;;;1.50;;
10150;SDS011;5116;52.318;4.644;2023-04-24T12:27:40;3.43;;;1.80;;
10150;SDS011;5116;52.318;4.644;2023-04-24T12:30:10;1.80;;;1.30;;
10150;SDS011;5116;52.318;4.644;2023-04-24T12:32:46;5.00;;;1.70;;
10150;SDS011;5116;52.318;4.644;2023-04-24T12:35:18;5.43;;;1.73;;
10150;SDS011;5116;52.318;4.644;2023-04-24T12:37:47;1.93;;;1.70;;
10150;SDS011;5116;52.318;4.644;2023-04-24T12:40:16;1.60;;;1.50;;
10150;SDS011;5116;52.318;4.644;2023-04-24T12:42:47;2.40;;;2.10;;
10150;SDS011;5116;52.318;4.644;2023-04-24T12:45:15;2.50;;;1.70;;
10150;SDS011;5116;52.318;4.644;2023-04-24T12:47:43;3.73;;;1.97;;
10150;SDS011;5116;52.318;4.644;2023-04-24T12:50:12;4.83;;;2.00;;
10150;SDS011;5116;52.318;4.644;2023-04-24T12:52:40;1.80;;;1.70;;
10150;SDS011;5116;52.318;4.644;2023-04-24T12:55:07;2.43;;;1.63;;
10150;SDS011;5116;52.318;4.644;2023-04-24T12:57:36;3.07;;;1.90;;
10150;SDS011;5116;52.318;4.644;2023-04-24T13:00:05;3.40;;;2.87;;
10150;SDS011;5116;52.318;4.644;2023-04-24T13:02:33;1.60;;;1.50;;
10150;SDS011;5116;52.318;4.644;2023-04-24T13:05:01;2.67;;;2.00;;
10150;SDS011;5116;52.318;4.644;2023-04-24T13:07:30;1.97;;;1.80;;
10150;SDS011;5116;52.318;4.644;2023-04-24T13:09:58;2.83;;;1.90;;
10150;SDS011;5116;52.318;4.644;2023-04-24T13:12:25;3.30;;;2.30;;
10150;SDS011;5116;52.318;4.644;2023-04-24T13:14:55;4.97;;;1.93;;
10150;SDS011;5116;52.318;4.644;2023-04-24T13:17:22;4.43;;;1.80;;
10150;SDS011;5116;52.318;4.644;2023-04-24T13:19:50;1.97;;;1.77;;
10150;SDS011;5116;52.318;4.644;2023-04-24T13:22:18;3.77;;;1.90;;
10150;SDS011;5116;52.318;4.644;2023-04-24T13:24:45;4.43;;;2.27;;
10150;SDS011;5116;52.318;4.644;2023-04-24T13:27:15;2.50;;;2.30;;
10150;SDS011;5116;52.318;4.644;2023-04-24T13:29:42;2.53;;;1.90;;
10150;SDS011;5116;52.318;4.644;2023-04-24T13:32:09;2.90;;;2.23;;
10150;SDS011;5116;52.318;4.644;2023-04-24T13:34:37;2.03;;;1.87;;
10150;SDS011;5116;52.318;4.644;2023-04-24T13:37:05;3.90;;;2.10;;
10150;SDS011;5116;52.318;4.644;2023-04-24T13:39:36;2.80;;;1.50;;
10150;SDS011;5116;52.318;4.644;2023-04-24T13:42:03;1.73;;;1.60;;
10150;SDS011;5116;52.318;4.644;2023-04-24T13:44:31;3.80;;;1.80;;
10150;SDS011;5116;52.318;4.644;2023-04-24T13:46:59;2.67;;;2.03;;
10150;SDS011;5116;52.318;4.644;2023-04-24T13:49:27;1.63;;;1.53;;
10150;SDS011;5116;52.318;4.644;2023-04-24T13:51:54;2.73;;;1.63;;
10150;SDS011;5116;52.318;4.644;2023-04-24T13:54:22;2.50;;;1.70;;
10150;SDS011;5116;52.318;4.644;2023-04-24T13:56:52;2.60;;;1.97;;
10150;SDS011;5116;52.318;4.644;2023-04-24T13:59:20;3.60;;;1.97;;
10150;SDS011;5116;52.318;4.644;2023-04-24T14:01:48;2.33;;;2.20;;
10150;SDS011;5116;52.318;4.644;2023-04-24T14:04:15;3.83;;;2.43;;
10150;SDS011;5116;52.318;4.644;2023-04-24T14:06:43;2.43;;;1.70;;
10150;SDS011;5116;52.318;4.644;2023-04-24T14:09:12;2.13;;;1.63;;
10150;SDS011;5116;52.318;4.644;2023-04-24T14:11:40;1.50;;;1.37;;
10150;SDS011;5116;52.318;4.644;2023-04-24T14:14:07;3.63;;;2.40;;
10150;SDS011;5116;52.318;4.644;2023-04-24T14:16:35;2.90;;;2.60;;
10150;SDS011;5116;52.318;4.644;2023-04-24T14:19:02;1.97;;;1.50;;
10150;SDS011;5116;52.318;4.644;2023-04-24T14:21:32;3.07;;;1.60;;
10150;SDS011;5116;52.318;4.644;2023-04-24T14:23:59;2.23;;;2.03;;
10150;SDS011;5116;52.318;4.644;2023-04-24T14:26:27;3.07;;;1.90;;
10150;SDS011;5116;52.318;4.644;2023-04-24T14:28:54;6.00;;;2.53;;
10150;SDS011;5116;52.318;4.644;2023-04-24T14:31:36;2.83;;;1.83;;
10150;SDS011;5116;52.318;4.644;2023-04-24T14:34:04;2.83;;;2.57;;
10150;SDS011;5116;52.318;4.644;2023-04-24T14:36:31;3.73;;;2.40;;
10150;SDS011;5116;52.318;4.644;2023-04-24T14:38:59;3.17;;;1.83;;
10150;SDS011;5116;52.318;4.644;2023-04-24T14:41:26;3.00;;;2.23;;
10150;SDS011;5116;52.318;4.644;2023-04-24T14:43:53;7.10;;;2.80;;
10150;SDS011;5116;52.318;4.644;2023-04-24T14:46:21;2.43;;;2.10;;
10150;SDS011;5116;52.318;4.644;2023-04-24T14:48:48;2.00;;;1.83;;
10150;SDS011;5116;52.318;4.644;2023-04-24T14:51:15;2.60;;;2.40;;
10150;SDS011;5116;52.318;4.644;2023-04-24T14:53:43;2.50;;;2.30;;
10150;SDS011;5116;52.318;4.644;2023-04-24T14:56:13;2.80;;;2.20;;
10150;SDS011;5116;52.318;4.644;2023-04-24T14:58:41;2.63;;;2.00;;
10150;SDS011;5116;52.318;4.644;2023-04-24T15:01:08;2.70;;;1.90;;
10150;SDS011;5116;52.318;4.644;2023-04-24T15:03:36;2.40;;;2.20;;
10150;SDS011;5116;52.318;4.644;2023-04-24T15:06:04;1.87;;;1.60;;
10150;SDS011;5116;52.318;4.644;2023-04-24T15:08:31;3.60;;;1.90;;
10150;SDS011;5116;52.318;4.644;2023-04-24T15:10:59;2.47;;;2.17;;
10150;SDS011;5116;52.318;4.644;2023-04-24T15:13:26;3.23;;;2.07;;
10150;SDS011;5116;52.318;4.644;2023-04-24T15:15:54;1.87;;;1.77;;